This is the latest recevied weather packets stored in our database for station/object E20ZNR-1. If no packets are shown the sender has not sent any weather packets the latest 10 day(s).
| Time | Temp. | Humidity | Pressure | Rain* | Wind** | Luminosity | Snow |
|---|---|---|---|---|---|---|---|
| 1778147434 | 30° C | 82% | 1002 hPa | - | - | 0 W/m² | - |
| 1778146508 | 30° C | 81% | 1002 hPa | - | - | 0 W/m² | - |
| 1778145581 | 30° C | 81% | 1002 hPa | - | - | 0 W/m² | - |
| 1778144657 | 30° C | 86% | 1002 hPa | - | - | 0 W/m² | - |
| 1778143731 | 31.11° C | 71% | 1002 hPa | - | - | 0 W/m² | - |
| 1778142806 | 31.67° C | 68% | 1003 hPa | - | - | 0 W/m² | - |
| 1778141880 | 35.56° C | 59% | 1001 hPa | - | - | 0 W/m² | - |
| 1778140955 | 36.67° C | 53% | 1001 hPa | - | - | 0 W/m² | - |
| 1778140030 | 37.78° C | 49% | 1000 hPa | - | - | 0 W/m² | - |
| 1778139105 | 38.33° C | 47% | 1001 hPa | - | - | 0 W/m² | - |
| 1778138180 | 40.56° C | 44% | 1001 hPa | - | - | 0 W/m² | - |
| 1778137254 | 38.89° C | 44% | 1001 hPa | - | - | 0 W/m² | - |
| 1778136329 | 40.56° C | 42% | 1002 hPa | - | - | 0 W/m² | - |
| 1778135403 | 41.67° C | 43% | 1002 hPa | - | - | 0 W/m² | - |
| 1778134478 | 41.11° C | 44% | 1003 hPa | - | - | 0 W/m² | - |
| 1778133552 | 40° C | 46% | 1003 hPa | - | - | 0 W/m² | - |
| 1778132626 | 41.11° C | 46% | 1003 hPa | - | - | 0 W/m² | - |
| 1778131701 | 40° C | 47% | 1004 hPa | - | - | 0 W/m² | - |
| 1778130776 | 39.44° C | 51% | 1004 hPa | - | - | 0 W/m² | - |
| 1778129851 | 41.11° C | 52% | 1004 hPa | - | - | 0 W/m² | - |
| 1778128925 | 39.44° C | 53% | 1005 hPa | - | - | 0 W/m² | - |
| 1778127998 | 38.33° C | 54% | 1005 hPa | - | - | 0 W/m² | - |
| 1778127073 | 38.89° C | 54% | 1005 hPa | - | - | 0 W/m² | - |
| 1778126148 | 38.89° C | 55% | 1005 hPa | - | - | 0 W/m² | - |
| 1778125223 | 38.89° C | 54% | 1005 hPa | - | - | 0 W/m² | - |
* Rain since midnight (hover to see other rain measurements)
** Current wind speed in m/s (hover to see current wind gust speed)